Time;durP1;ratioP1;P1;durP2;ratioP2;P2;SDS_P1;SDS_P2;PMS_P1;PMS_P2;Temp;Humidity;BMP_temperature;BMP_pressure;BME280_temperature;BME280_humidity;BME280_pressure;Samples;Min_cycle;Max_cycle;Signal;HPM_P1;HPM_P2
2022/02/02 00:01:18;;;;;;;11.03;6.50;;;;;;;0.85;90.62;96839.26;2283762;78;21389;-85
2022/02/02 00:04:22;;;;;;;11.07;6.53;;;;;;;0.90;90.45;96840.66;2281443;77;21017;-83
2022/02/02 00:07:43;;;;;;;12.33;6.63;;;;;;;0.93;90.41;96836.86;2281244;77;20914;-83
2022/02/02 00:11:01;;;;;;;9.43;6.20;;;;;;;0.94;90.12;96834.31;2279221;77;20982;-84
2022/02/02 00:19:59;;;;;;;8.03;5.00;;;;;;;0.95;90.49;96821.05;2258486;78;20982;-86
2022/02/02 00:22:52;;;;;;;8.17;5.30;;;;;;;0.95;90.20;96814.20;2278078;78;20986;-87
2022/02/02 00:26:00;;;;;;;10.77;4.97;;;;;;;0.93;90.54;96818.88;2281322;78;20973;-85
2022/02/02 00:29:00;;;;;;;12.07;7.23;;;;;;;0.92;90.54;96821.86;2280595;77;21085;-85
2022/02/02 00:32:08;;;;;;;7.13;5.07;;;;;;;0.93;90.63;96807.31;2280985;77;20950;-85
2022/02/02 00:35:00;;;;;;;7.70;4.80;;;;;;;0.96;90.52;96820.20;2280317;78;20990;-85
2022/02/02 00:38:03;;;;;;;6.30;4.33;;;;;;;0.98;90.40;96822.38;2261068;78;20973;-85
2022/02/02 00:41:05;;;;;;;9.63;4.53;;;;;;;0.96;90.54;96818.92;2250453;79;20940;-85
2022/02/02 00:47:19;;;;;;;7.20;4.40;;;;;;;0.92;90.55;96824.43;2249895;79;21376;-84
2022/02/02 00:53:19;;;;;;;5.83;4.00;;;;;;;0.98;90.76;96814.67;2248658;79;21030;-85
2022/02/02 00:59:30;;;;;;;12.10;6.47;;;;;;;1.01;90.75;96821.15;2260871;78;20993;-85
2022/02/02 01:02:32;;;;;;;11.43;5.20;;;;;;;1.01;90.85;96813.45;2281850;77;20966;-83
2022/02/02 01:05:39;;;;;;;9.37;4.27;;;;;;;1.01;91.09;96818.58;2220341;79;21319;-80
2022/02/02 01:15:39;;;;;;;7.90;4.27;;;;;;;1.06;91.41;96823.37;2269092;78;21011;-85
2022/02/02 01:21:06;;;;;;;9.43;4.43;;;;;;;1.16;90.90;96825.25;2268812;78;21020;-84
2022/02/02 01:30:36;;;;;;;4.53;3.07;;;;;;;1.27;90.86;96821.56;2268550;78;21412;-84
2022/02/02 01:33:37;;;;;;;6.53;3.37;;;;;;;1.29;90.79;96827.59;2291755;78;20901;-86
2022/02/02 01:36:39;;;;;;;4.43;3.30;;;;;;;1.32;90.92;96828.93;2291563;78;20944;-85
2022/02/02 01:39:40;;;;;;;4.40;3.50;;;;;;;1.31;90.67;96822.48;2291613;78;21348;-85
2022/02/02 01:42:48;;;;;;;7.13;3.27;;;;;;;1.27;90.58;96830.14;2291125;78;20955;-84
2022/02/02 01:45:50;;;;;;;4.60;2.60;;;;;;;1.28;90.85;96825.45;2289302;77;21339;-85
2022/02/02 01:49:17;;;;;;;9.23;3.10;;;;;;;1.31;90.57;96827.63;2289710;77;21067;-86
2022/02/02 01:52:19;;;;;;;5.47;3.70;;;;;;;1.29;90.91;96825.03;2287200;78;21015;-84
2022/02/02 01:55:05;;;;;;;8.00;3.40;;;;;;;1.28;90.90;96817.73;2287755;77;21000;-85
2022/02/02 01:58:17;;;;;;;4.90;3.10;;;;;;;1.29;91.25;96826.31;2291375;77;20992;-86
2022/02/02 02:01:07;;;;;;;7.23;3.53;;;;;;;1.31;91.54;96820.77;2289453;77;21421;-85
2022/02/02 02:04:07;;;;;;;4.57;3.03;;;;;;;1.31;91.10;96818.62;2291236;78;21438;-82
2022/02/02 02:07:08;;;;;;;5.33;3.07;;;;;;;1.30;91.36;96825.89;2291451;78;20912;-83
2022/02/02 02:10:08;;;;;;;12.17;2.87;;;;;;;1.30;90.96;96822.03;2286653;78;20969;-85
2022/02/02 02:16:11;;;;;;;4.57;3.10;;;;;;;1.32;91.20;96829.35;2260831;78;21336;-84
2022/02/02 02:19:12;;;;;;;2.93;2.60;;;;;;;1.34;91.04;96831.53;2281536;78;20907;-84
2022/02/02 02:22:14;;;;;;;4.73;2.90;;;;;;;1.37;90.96;96832.86;2281592;78;20887;-84
2022/02/02 02:25:14;;;;;;;10.43;3.10;;;;;;;1.37;90.86;96834.14;2281291;78;21026;-81
2022/02/02 02:31:29;;;;;;;8.03;4.43;;;;;;;1.36;91.57;96824.28;2249675;78;21001;-85
2022/02/02 02:34:42;;;;;;;7.80;3.20;;;;;;;1.41;90.95;96826.50;2279886;77;21377;-83
2022/02/02 02:38:22;;;;;;;7.47;3.47;;;;;;;1.37;90.86;96832.86;2279411;77;21313;-84
2022/02/02 02:57:19;;;;;;;6.30;3.17;;;;;;;1.30;91.12;96820.33;2281843;77;21427;-82
2022/02/02 03:00:35;;;;;;;6.90;2.70;;;;;;;1.33;91.04;96830.66;2281581;77;20991;-81
2022/02/02 03:34:40;;;;;;;13.93;3.90;;;;;;;1.34;91.50;96843.09;2227089;79;21007;-83
2022/02/02 04:02:36;;;;;;;11.20;4.77;;;;;;;1.36;91.76;96849.12;2227621;79;20963;-81
2022/02/02 04:08:30;;;;;;;12.47;4.77;;;;;;;1.39;92.03;96859.03;2227667;79;20964;-83
2022/02/02 04:11:31;;;;;;;5.90;4.27;;;;;;;1.36;91.78;96871.84;2272787;78;21030;-82
2022/02/02 04:38:10;;;;;;;12.00;5.13;;;;;;;1.00;92.01;96890.48;2280547;77;21099;-84
2022/02/02 04:54:27;;;;;;;17.70;6.13;;;;;;;1.16;91.85;96897.21;2280852;77;21030;-84
2022/02/02 05:07:13;;;;;;;20.87;7.30;;;;;;;1.37;91.29;96895.84;2259182;78;21105;-82
2022/02/02 05:10:27;;;;;;;11.83;5.33;;;;;;;1.36;91.33;96895.39;2279667;77;21070;-82
2022/02/02 05:52:01;;;;;;;10.00;5.93;;;;;;;1.71;92.32;96909.67;2267098;78;21007;-85
2022/02/02 05:58:04;;;;;;;10.60;5.50;;;;;;;1.79;92.12;96910.69;2266877;78;20988;-84
2022/02/02 06:01:05;;;;;;;15.50;6.13;;;;;;;1.83;92.21;96911.18;2266559;78;21047;-84
2022/02/02 06:04:05;;;;;;;13.10;7.23;;;;;;;1.84;92.29;96923.20;2290939;78;21339;-83
2022/02/02 06:07:06;;;;;;;18.30;9.80;;;;;;;1.88;92.25;96922.83;2290150;78;20952;-85
2022/02/02 06:10:06;;;;;;;15.03;8.37;;;;;;;1.86;92.40;96931.80;2289230;78;21073;-85
2022/02/02 06:13:07;;;;;;;16.27;9.90;;;;;;;1.85;92.37;96936.50;2279801;78;21027;-84
2022/02/02 06:16:08;;;;;;;20.80;11.93;;;;;;;1.82;92.41;96937.75;2259354;78;20961;-86
2022/02/02 06:19:10;;;;;;;12.47;6.57;;;;;;;1.83;92.21;96943.75;2248558;79;20979;-83
2022/02/02 06:22:11;;;;;;;28.10;10.57;;;;;;;1.82;92.51;96942.02;2273601;78;21001;-85
2022/02/02 06:25:11;;;;;;;49.50;22.37;;;;;;;1.80;92.41;96942.42;2280307;78;20993;-87
2022/02/02 06:28:12;;;;;;;51.20;23.77;;;;;;;1.82;92.37;96946.75;2280230;78;20926;-85
2022/02/02 06:34:18;;;;;;;26.73;12.58;;;;;;;1.85;92.26;96957.51;2258948;78;21017;-88
2022/02/02 06:37:21;;;;;;;37.05;10.78;;;;;;;1.86;92.51;96952.39;2259567;78;21048;-84
2022/02/02 06:40:23;;;;;;;28.33;10.63;;;;;;;1.86;92.64;96964.38;2280500;78;21333;-85
2022/02/02 06:43:25;;;;;;;46.70;16.07;;;;;;;1.88;92.56;96963.98;2259382;78;21048;-82
2022/02/02 06:46:32;;;;;;;52.33;17.23;;;;;;;1.94;92.48;96972.22;2260904;78;21021;-82
2022/02/02 06:49:38;;;;;;;63.23;23.57;;;;;;;1.98;92.77;96974.87;2258271;78;20993;-83
2022/02/02 06:52:39;;;;;;;36.77;14.50;;;;;;;2.05;92.41;96974.54;2280574;78;21010;-82
2022/02/02 06:55:45;;;;;;;26.77;9.03;;;;;;;2.09;92.37;96970.75;2280273;78;21348;-82
2022/02/02 06:59:08;;;;;;;20.93;6.67;;;;;;;2.12;92.19;96978.94;2279090;78;21018;-82
2022/02/02 07:05:39;;;;;;;27.80;8.70;;;;;;;2.16;91.84;96981.58;2279633;78;21012;-82
2022/02/02 07:12:05;;;;;;;26.30;11.60;;;;;;;2.18;91.90;96984.17;2241114;78;21014;-81
2022/02/02 07:24:51;;;;;;;20.97;6.87;;;;;;;2.25;91.91;96992.43;2247310;79;21079;-82
2022/02/02 07:27:44;;;;;;;17.50;6.60;;;;;;;2.27;91.95;97000.17;2223786;78;20979;-83
2022/02/02 07:36:46;;;;;;;20.77;7.90;;;;;;;2.28;91.95;97008.34;2224548;79;21042;-84
2022/02/02 07:39:48;;;;;;;31.43;8.93;;;;;;;2.34;91.67;97017.45;2245966;78;21362;-86
2022/02/02 07:42:54;;;;;;;22.77;9.30;;;;;;;2.36;91.53;97014.47;2246481;79;21077;-84
2022/02/02 07:45:55;;;;;;;23.43;6.73;;;;;;;2.38;91.23;97026.52;2246477;79;21899;-85
2022/02/02 07:48:58;;;;;;;17.53;6.93;;;;;;;2.37;91.27;97017.06;2242379;79;21287;-86
2022/02/02 07:52:00;;;;;;;16.23;6.97;;;;;;;2.37;91.14;97028.66;2247056;79;21390;-84
2022/02/02 07:55:03;;;;;;;25.07;10.17;;;;;;;2.43;90.98;97028.74;2223946;79;20955;-84
2022/02/02 07:58:10;;;;;;;19.42;9.03;;;;;;;2.51;90.70;97030.14;2212351;80;21022;-85
2022/02/02 08:01:14;;;;;;;22.33;8.60;;;;;;;2.51;90.59;97033.58;2240417;79;21007;-84
2022/02/02 08:04:15;;;;;;;23.30;9.73;;;;;;;2.51;90.66;97028.43;2246370;79;20991;-84
2022/02/02 08:13:39;;;;;;;15.80;6.93;;;;;;;2.63;90.40;97044.94;2139799;83;21184;-85
2022/02/02 08:28:58;;;;;;;55.07;21.93;;;;;;;2.68;90.22;97063.90;2139323;83;21444;-83
2022/02/02 08:31:59;;;;;;;20.83;7.77;;;;;;;2.72;90.07;97071.69;2139735;83;21918;-83
2022/02/02 08:35:00;;;;;;;18.10;8.70;;;;;;;2.78;90.06;97072.20;2140294;83;21018;-83
2022/02/02 08:44:41;;;;;;;14.07;6.60;;;;;;;2.91;89.03;97082.25;2140837;83;21009;-84
2022/02/02 08:47:33;;;;;;;14.80;5.77;;;;;;;2.96;88.92;97087.05;2139597;82;21002;-85
2022/02/02 08:50:45;;;;;;;17.83;7.47;;;;;;;2.97;88.54;97080.63;2140419;83;21001;-83
2022/02/02 09:00:12;;;;;;;19.43;6.87;;;;;;;3.13;88.25;97099.73;2140389;83;20993;-84
2022/02/02 09:06:33;;;;;;;26.80;10.07;;;;;;;2.92;88.28;97114.48;2194313;77;20955;-85
2022/02/02 09:35:52;;;;;;;24.20;9.53;;;;;;;3.15;86.92;97131.13;2076352;86;21056;-84
2022/02/02 09:42:03;;;;;;;22.13;8.98;;;;;;;3.00;87.44;97138.66;2053937;86;21044;-83
2022/02/02 09:45:06;;;;;;;22.20;8.57;;;;;;;2.98;87.58;97145.50;2075714;86;21136;-81
2022/02/02 09:48:11;;;;;;;24.27;8.67;;;;;;;2.95;87.34;97140.30;2075316;86;21533;-84
2022/02/02 09:51:09;;;;;;;25.73;11.07;;;;;;;3.13;86.75;97133.25;2075126;86;21091;-83
2022/02/02 09:54:17;;;;;;;36.23;13.27;;;;;;;3.38;85.86;97139.17;2075895;84;21091;-82
2022/02/02 10:03:52;;;;;;;22.77;7.23;;;;;;;3.76;84.17;97135.78;2053455;86;21101;-83
2022/02/02 10:09:57;;;;;;;18.73;7.10;;;;;;;3.71;83.85;97140.03;2052894;86;21052;-81
2022/02/02 10:15:57;;;;;;;23.03;11.30;;;;;;;3.68;83.28;97149.02;2257541;78;20934;-83
2022/02/02 10:18:58;;;;;;;25.70;9.53;;;;;;;3.72;83.17;97139.18;2289224;78;20981;-84
2022/02/02 10:21:59;;;;;;;21.23;7.93;;;;;;;3.70;83.31;97145.17;2289512;77;20992;-85
2022/02/02 10:25:04;;;;;;;15.63;7.07;;;;;;;3.73;83.61;97141.33;2290367;77;21027;-84
2022/02/02 10:28:04;;;;;;;31.17;9.37;;;;;;;3.87;83.27;97149.23;2290128;77;21312;-82
2022/02/02 10:31:09;;;;;;;22.17;8.75;;;;;;;4.01;82.82;97148.95;2289937;78;21009;-84
2022/02/02 10:34:09;;;;;;;25.73;8.53;;;;;;;4.19;82.39;97149.56;2290962;77;20985;-82
2022/02/02 10:37:12;;;;;;;22.90;9.07;;;;;;;4.33;82.03;97141.09;2289980;78;21076;-84
2022/02/02 10:40:12;;;;;;;17.33;8.53;;;;;;;4.41;80.88;97147.65;2291079;77;21281;-84
2022/02/02 10:43:14;;;;;;;20.93;8.10;;;;;;;4.47;81.62;97147.28;2290467;78;20988;-84
2022/02/02 10:46:21;;;;;;;22.83;9.43;;;;;;;4.31;80.64;97158.72;2258161;78;20967;-83
2022/02/02 10:50:13;;;;;;;28.17;10.77;;;;;;;4.04;81.41;97158.02;2290282;78;21015;-83
2022/02/02 10:52:39;;;;;;;28.73;12.70;;;;;;;3.82;82.38;97163.38;2286118;78;21036;-80
2022/02/02 10:55:58;;;;;;;21.63;10.13;;;;;;;3.64;82.72;97170.48;2287805;77;20990;-85
2022/02/02 10:59:09;;;;;;;25.37;11.83;;;;;;;3.51;83.23;97165.59;2284888;78;21019;-85
2022/02/02 11:08:09;;;;;;;13.40;6.03;;;;;;;3.18;84.57;97184.45;2290180;77;21218;-82
2022/02/02 11:11:10;;;;;;;18.07;7.90;;;;;;;3.18;84.62;97182.74;2287585;77;21340;-82
2022/02/02 11:14:11;;;;;;;18.83;8.50;;;;;;;3.26;85.14;97177.69;2247623;78;21358;-81
2022/02/02 11:17:11;;;;;;;20.23;9.77;;;;;;;3.42;85.15;97174.89;2248351;78;20995;-83
2022/02/02 11:20:12;;;;;;;22.00;10.80;;;;;;;3.59;84.98;97181.59;2247028;78;20979;-80
2022/02/02 11:23:12;;;;;;;29.27;11.23;;;;;;;3.70;84.71;97186.46;2248240;79;20936;-83
2022/02/02 11:26:13;;;;;;;33.13;11.87;;;;;;;3.63;84.81;97189.81;2247263;79;20976;-84
2022/02/02 11:29:13;;;;;;;31.53;11.60;;;;;;;3.58;85.00;97192.33;2247126;78;20948;-81
2022/02/02 11:32:14;;;;;;;34.57;11.87;;;;;;;3.53;85.06;97192.70;2247251;78;21317;-83
2022/02/02 11:35:15;;;;;;;21.73;10.20;;;;;;;3.49;85.43;97190.92;2246647;79;21062;-84
2022/02/02 11:38:23;;;;;;;21.47;9.63;;;;;;;3.55;85.44;97196.16;2223723;79;21372;-84
2022/02/02 11:41:39;;;;;;;22.07;9.90;;;;;;;3.62;85.29;97185.08;2245521;79;21077;-80
2022/02/02 11:44:41;;;;;;;26.47;9.47;;;;;;;3.79;85.02;97195.17;2244529;79;21020;-83
2022/02/02 11:47:33;;;;;;;23.10;10.97;;;;;;;3.97;84.59;97197.53;2244764;79;21425;-83
2022/02/02 11:50:36;;;;;;;28.63;13.07;;;;;;;4.09;83.85;97198.53;2246348;78;21022;-79
2022/02/02 11:53:36;;;;;;;33.30;13.67;;;;;;;4.23;83.91;97201.27;2247502;78;21344;-82
2022/02/02 11:59:43;;;;;;;29.40;13.03;;;;;;;4.26;83.62;97203.87;2224880;79;21021;-83
2022/02/02 12:03:09;;;;;;;36.50;13.07;;;;;;;4.14;83.75;97207.62;2246107;76;20983;-83
2022/02/02 12:06:20;;;;;;;28.52;12.50;;;;;;;4.06;84.11;97214.41;2244289;77;22074;-83
2022/02/02 12:19:12;;;;;;;34.47;13.17;;;;;;;3.44;85.88;97259.61;2104781;84;21092;-85
2022/02/02 12:48:04;;;;;;;15.40;6.30;;;;;;;3.14;86.40;97282.80;2171729;77;20987;-84
2022/02/02 12:57:39;;;;;;;16.90;6.07;;;;;;;3.06;86.53;97302.44;2271317;77;21320;-85
2022/02/02 13:07:07;;;;;;;43.55;14.68;;;;;;;2.93;86.88;97330.56;2164235;82;21036;-87
2022/02/02 13:10:07;;;;;;;43.47;12.80;;;;;;;2.83;87.52;97344.58;2121149;84;21056;-86
2022/02/02 13:13:10;;;;;;;16.00;5.97;;;;;;;2.63;87.93;97362.66;2104578;84;21086;-86
2022/02/02 13:16:15;;;;;;;12.77;4.77;;;;;;;2.37;88.43;97376.28;2095962;85;21022;-85
2022/02/02 13:19:17;;;;;;;46.47;15.50;;;;;;;2.15;88.59;97384.40;2053858;85;21050;-86
2022/02/02 13:22:20;;;;;;;49.58;17.42;;;;;;;2.09;88.95;97385.14;2037448;86;21033;-86
2022/02/02 13:25:22;;;;;;;63.23;20.40;;;;;;;2.01;89.46;97398.67;2060304;85;21071;-86
2022/02/02 13:28:23;;;;;;;60.13;16.47;;;;;;;1.93;89.81;97392.07;2096233;85;20998;-88
2022/02/02 13:31:32;;;;;;;73.63;22.07;;;;;;;1.86;90.12;97403.93;2073343;85;21089;-86
2022/02/02 13:34:40;;;;;;;33.70;11.27;;;;;;;1.78;90.82;97418.33;2095639;85;21062;-82
2022/02/02 13:44:27;;;;;;;16.90;7.50;;;;;;;1.50;91.07;97437.34;2236257;79;21025;-85
2022/02/02 13:54:06;;;;;;;29.70;12.03;;;;;;;1.19;91.88;97460.12;2208829;81;21412;-86
2022/02/02 13:57:30;;;;;;;28.60;10.40;;;;;;;1.17;92.03;97450.21;2205883;80;21006;-86
2022/02/02 14:00:32;;;;;;;16.10;7.17;;;;;;;1.13;92.30;97465.09;2182310;81;20987;-85
2022/02/02 14:07:13;;;;;;;23.17;11.90;;;;;;;1.13;93.02;97470.65;2203820;80;21514;-86
2022/02/02 14:10:13;;;;;;;20.62;8.90;;;;;;;1.22;92.91;97476.91;2204236;80;21035;-87
2022/02/02 14:33:04;;;;;;;13.90;7.83;;;;;;;1.09;93.12;97550.66;2238856;79;20973;-86
2022/02/02 14:36:08;;;;;;;8.77;6.00;;;;;;;1.07;93.05;97556.16;2206923;81;21027;-86
2022/02/02 14:39:17;;;;;;;8.90;4.97;;;;;;;1.08;93.13;97555.75;2239518;79;21017;-86
2022/02/02 14:48:35;;;;;;;9.10;6.08;;;;;;;1.09;92.53;97575.48;2174678;82;21042;-84
2022/02/02 14:52:01;;;;;;;20.37;10.70;;;;;;;1.06;92.24;97582.69;2203071;81;20959;-84
2022/02/02 15:27:37;;;;;;;12.43;9.10;;;;;;;1.04;91.57;97673.00;2135105;83;21115;-85
2022/02/02 15:30:50;;;;;;;16.10;9.63;;;;;;;1.01;91.56;97684.47;2156686;82;21047;-81
2022/02/02 15:33:37;;;;;;;11.43;8.57;;;;;;;0.99;91.70;97686.13;2155066;82;21012;-86
2022/02/02 15:37:08;;;;;;;10.60;7.47;;;;;;;1.02;91.84;97689.20;2157265;83;21071;-85
2022/02/02 15:39:45;;;;;;;13.20;8.73;;;;;;;1.02;91.77;97707.19;2154473;83;21091;-85
2022/02/02 15:59:07;;;;;;;13.80;8.90;;;;;;;1.08;91.78;97733.08;2157408;83;21043;-85
2022/02/02 16:02:13;;;;;;;13.70;9.43;;;;;;;1.11;91.80;97744.73;2156509;82;21036;-87
2022/02/02 16:05:15;;;;;;;15.80;10.67;;;;;;;1.09;91.76;97748.55;2156789;82;21047;-86
2022/02/02 16:08:19;;;;;;;14.20;10.30;;;;;;;1.08;91.90;97766.07;2156196;82;21052;-87
2022/02/02 16:11:26;;;;;;;16.73;11.97;;;;;;;1.09;91.79;97775.94;2156536;82;21328;-86
2022/02/02 16:14:27;;;;;;;17.77;11.27;;;;;;;1.10;91.84;97778.97;2169103;79;21023;-86
2022/02/02 16:37:06;;;;;;;48.80;19.97;;;;;;;1.16;91.61;97839.16;2152249;82;21030;-85
2022/02/02 16:40:05;;;;;;;45.73;29.47;;;;;;;1.16;91.55;97846.87;2172538;82;21011;-87
2022/02/02 16:43:13;;;;;;;45.53;38.37;;;;;;;1.18;91.58;97858.48;2156772;83;21377;-86
2022/02/02 16:46:11;;;;;;;89.40;73.47;;;;;;;1.21;91.52;97863.31;2182365;82;21049;-86
2022/02/02 16:49:12;;;;;;;138.20;112.70;;;;;;;1.23;91.54;97862.95;2182752;81;20951;-85
2022/02/02 16:52:15;;;;;;;112.80;94.87;;;;;;;1.25;91.52;97866.86;2184611;82;20951;-86
2022/02/02 16:55:32;;;;;;;98.03;87.37;;;;;;;1.28;91.49;97879.40;2184861;81;20987;-86
2022/02/02 17:37:47;;;;;;;19.03;13.90;;;;;;;1.15;90.59;97972.36;2221295;79;21030;-86
2022/02/02 17:40:52;;;;;;;16.87;12.73;;;;;;;1.13;90.55;97979.14;2239432;78;20982;-83
2022/02/02 18:13:35;;;;;;;16.73;13.20;;;;;;;1.96;88.25;98056.55;2246514;78;21002;-86
2022/02/02 18:19:09;;;;;;;18.77;12.03;;;;;;;1.52;89.16;98063.20;2269002;78;20929;-84
2022/02/02 18:22:09;;;;;;;16.27;11.43;;;;;;;1.42;89.22;98058.98;2291777;77;20956;-84
2022/02/02 18:25:23;;;;;;;14.20;11.03;;;;;;;1.32;89.45;98074.49;2292435;78;20952;-84
2022/02/02 18:34:52;;;;;;;16.20;11.10;;;;;;;1.57;87.94;98091.25;2291660;77;20979;-84
2022/02/02 18:54:19;;;;;;;12.82;9.20;;;;;;;0.70;87.00;98128.67;2269747;78;20925;-85
2022/02/02 18:57:11;;;;;;;16.20;9.67;;;;;;;0.59;86.97;98141.97;2288439;77;21023;-83
2022/02/02 19:52:27;;;;;;;13.60;6.67;;;;;;;0.43;88.27;98276.09;2281243;77;20997;-84
2022/02/02 19:55:50;;;;;;;10.13;6.90;;;;;;;0.42;88.26;98273.06;2279181;78;20989;-84
2022/02/02 20:02:03;;;;;;;15.57;7.67;;;;;;;0.43;88.12;98284.68;2260992;78;20930;-83
2022/02/02 20:05:03;;;;;;;12.47;6.83;;;;;;;0.43;87.95;98283.39;2280169;77;21065;-84
2022/02/02 20:09:19;;;;;;;13.40;7.07;;;;;;;0.43;87.86;98276.98;2280666;78;20994;-85
2022/02/02 20:11:15;;;;;;;13.70;7.23;;;;;;;0.44;87.81;98291.57;2278311;78;20998;-84
2022/02/02 20:14:10;;;;;;;11.03;6.57;;;;;;;0.44;87.52;98303.13;2283788;77;21451;-84
2022/02/02 20:17:15;;;;;;;11.77;7.33;;;;;;;0.42;87.43;98303.88;2292155;78;20916;-84
2022/02/02 20:20:16;;;;;;;12.70;6.50;;;;;;;0.43;87.73;98319.75;2291173;77;21027;-83
2022/02/02 20:23:17;;;;;;;8.73;6.60;;;;;;;0.40;87.42;98328.60;2291163;77;21048;-83
2022/02/02 20:26:20;;;;;;;12.20;7.10;;;;;;;0.37;87.50;98322.93;2290835;78;21055;-83
2022/02/02 20:29:20;;;;;;;13.97;7.73;;;;;;;0.36;87.43;98328.88;2291447;78;21016;-84
2022/02/02 20:32:20;;;;;;;10.43;6.97;;;;;;;0.35;87.02;98333.55;2291862;78;20917;-84
2022/02/02 20:35:21;;;;;;;11.53;6.40;;;;;;;0.34;87.32;98344.63;2292167;78;20928;-85
2022/02/02 20:38:21;;;;;;;10.17;7.10;;;;;;;0.33;87.14;98346.72;2291694;78;21020;-85
2022/02/02 20:41:22;;;;;;;12.03;6.77;;;;;;;0.32;87.10;98359.08;2292160;78;20936;-84
2022/02/02 20:44:36;;;;;;;14.23;7.97;;;;;;;0.32;86.95;98365.50;2290570;78;20972;-85
2022/02/02 21:01:14;;;;;;;11.70;7.23;;;;;;;0.33;87.02;98408.33;2292189;78;20956;-83
2022/02/02 21:10:11;;;;;;;12.93;7.33;;;;;;;0.33;86.65;98428.87;2269389;78;20974;-82
2022/02/02 21:16:29;;;;;;;12.57;7.10;;;;;;;0.33;86.52;98441.70;2281200;78;21002;-83
2022/02/02 21:19:37;;;;;;;16.27;7.40;;;;;;;0.33;86.40;98450.69;2281724;78;21100;-83
2022/02/02 21:22:34;;;;;;;11.13;7.27;;;;;;;0.29;86.25;98460.34;2280211;77;21021;-83
2022/02/02 21:25:42;;;;;;;14.47;7.50;;;;;;;0.29;86.22;98462.91;2279871;78;21077;-83
2022/02/02 21:28:38;;;;;;;12.10;7.03;;;;;;;0.28;86.13;98468.86;2280412;77;21060;-82
2022/02/02 21:31:39;;;;;;;12.13;6.80;;;;;;;0.27;86.01;98467.10;2280952;77;20988;-82
2022/02/02 21:34:39;;;;;;;12.97;6.80;;;;;;;0.26;86.13;98468.79;2280656;78;20922;-83
2022/02/02 21:37:42;;;;;;;11.27;6.60;;;;;;;0.26;85.75;98486.76;2281377;77;21037;-81
2022/02/02 21:40:46;;;;;;;9.83;6.43;;;;;;;0.27;86.05;98482.09;2282352;78;21054;-84
2022/02/02 21:43:45;;;;;;;16.67;7.90;;;;;;;0.30;85.87;98489.06;2281790;78;20986;-83
2022/02/02 21:46:45;;;;;;;10.00;6.07;;;;;;;0.29;86.12;98498.45;2282674;77;21414;-85
2022/02/02 21:49:46;;;;;;;14.33;7.50;;;;;;;0.32;85.95;98507.98;2282311;77;20906;-83
2022/02/02 21:52:47;;;;;;;15.80;7.27;;;;;;;0.34;86.16;98514.07;2282370;77;21009;-85
2022/02/02 21:55:47;;;;;;;16.23;7.93;;;;;;;0.36;86.17;98526.57;2281440;78;21013;-85
2022/02/02 21:58:48;;;;;;;28.07;11.70;;;;;;;0.38;85.81;98542.05;2279519;77;20950;-82
2022/02/02 22:01:48;;;;;;;19.67;8.97;;;;;;;0.38;86.05;98542.92;2281007;78;21210;-83
2022/02/02 22:04:49;;;;;;;13.37;7.67;;;;;;;0.40;86.18;98549.02;2281799;77;20954;-84
2022/02/02 22:07:49;;;;;;;13.10;7.40;;;;;;;0.42;86.26;98549.97;2281770;77;21001;-84
2022/02/02 22:10:50;;;;;;;12.73;6.97;;;;;;;0.43;85.97;98559.43;2281664;77;20934;-84
2022/02/02 22:14:00;;;;;;;13.63;7.73;;;;;;;0.44;85.92;98567.61;2280870;77;20992;-82
2022/02/02 22:17:02;;;;;;;16.30;8.20;;;;;;;0.44;86.20;98564.16;2280033;78;20957;-83
2022/02/02 22:20:06;;;;;;;16.70;7.77;;;;;;;0.44;86.26;98566.33;2280519;78;20992;-84
2022/02/02 22:23:04;;;;;;;21.50;9.10;;;;;;;0.44;86.11;98582.13;2280484;77;21006;-84
2022/02/02 22:26:04;;;;;;;16.10;7.67;;;;;;;0.43;86.56;98592.81;2281663;77;20930;-84
2022/02/02 22:29:05;;;;;;;14.40;8.60;;;;;;;0.40;86.84;98591.78;2281791;77;20996;-83
2022/02/02 22:32:06;;;;;;;18.10;8.97;;;;;;;0.37;87.04;98597.66;2282364;77;21052;-84
2022/02/02 22:35:06;;;;;;;21.40;9.57;;;;;;;0.37;87.22;98597.66;2283198;78;20948;-85
2022/02/02 22:38:08;;;;;;;14.93;9.10;;;;;;;0.43;87.47;98595.78;2282970;77;21020;-83
2022/02/02 22:41:08;;;;;;;38.03;16.53;;;;;;;0.41;87.55;98605.98;2282736;78;20978;-84
2022/02/02 22:44:12;;;;;;;27.33;12.33;;;;;;;0.41;87.59;98607.67;2281805;78;21002;-83
2022/02/02 22:47:14;;;;;;;21.70;10.13;;;;;;;0.42;87.71;98614.16;2281069;78;21356;-83
2022/02/02 22:50:14;;;;;;;18.17;9.50;;;;;;;0.44;87.81;98616.40;2281697;78;20986;-82
2022/02/02 22:53:19;;;;;;;17.07;9.43;;;;;;;0.51;89.60;98623.59;2280448;78;20946;-86
2022/02/02 22:56:17;;;;;;;13.93;8.00;;;;;;;1.13;91.53;98623.06;2281748;78;21014;-85
2022/02/02 22:59:18;;;;;;;11.27;8.63;;;;;;;2.21;97.98;98616.59;2282389;78;21313;-84
2022/02/02 23:05:41;;;;;;;15.80;8.10;;;;;;;2.58;82.65;98619.35;2262242;78;20958;-83
2022/02/02 23:08:32;;;;;;;15.67;8.60;;;;;;;1.95;82.53;98631.37;2280916;78;21017;-82
2022/02/02 23:11:32;;;;;;;13.67;8.17;;;;;;;1.55;83.62;98641.21;2282543;77;20891;-83
2022/02/02 23:14:36;;;;;;;14.00;7.83;;;;;;;1.31;84.55;98642.30;2283085;77;20992;-83
2022/02/02 23:17:36;;;;;;;15.40;9.40;;;;;;;1.19;85.22;98645.20;2290924;77;21040;-83
2022/02/02 23:20:37;;;;;;;14.73;8.97;;;;;;;1.09;85.63;98657.56;2292336;78;20893;-83
2022/02/02 23:23:38;;;;;;;13.93;8.30;;;;;;;0.98;86.26;98651.94;2292271;78;20881;-84
2022/02/02 23:26:39;;;;;;;17.10;7.97;;;;;;;0.88;86.60;98652.31;2292520;78;20956;-84
2022/02/02 23:29:43;;;;;;;12.60;8.97;;;;;;;0.80;86.90;98661.33;2292534;78;20980;-84
2022/02/02 23:32:41;;;;;;;16.30;10.10;;;;;;;0.76;87.36;98656.84;2291791;77;21008;-84
2022/02/02 23:35:42;;;;;;;16.67;10.83;;;;;;;0.71;87.96;98666.91;2291281;78;21314;-84
2022/02/02 23:38:43;;;;;;;17.03;10.47;;;;;;;0.66;87.78;98666.22;2291859;78;21031;-84
2022/02/02 23:42:17;;;;;;;17.73;10.50;;;;;;;0.61;88.12;98677.55;2290863;78;20974;-83
2022/02/02 23:44:49;;;;;;;13.10;10.00;;;;;;;0.57;88.03;98677.81;2288176;77;21478;-82
2022/02/02 23:47:49;;;;;;;12.33;9.60;;;;;;;0.55;87.92;98682.00;2292688;78;20932;-84
2022/02/02 23:50:52;;;;;;;19.20;10.73;;;;;;;0.53;87.89;98684.89;2291805;78;20956;-84
2022/02/02 23:53:53;;;;;;;16.37;9.70;;;;;;;0.50;87.93;98688.59;2291270;78;21428;-84
2022/02/02 23:57:05;;;;;;;11.07;9.00;;;;;;;0.50;87.97;98704.01;2291585;78;21039;-84
